sensor_id;sensor_type;location;lat;lon;timestamp;temperature;humidity
66343;DHT22;53144;51.524;5.080;2023-03-17T00:00:35;7.32;77.54
66343;DHT22;53144;51.524;5.080;2023-03-17T00:03:01;7.29;77.60
66343;DHT22;53144;51.524;5.080;2023-03-17T00:05:30;7.16;78.43
66343;DHT22;53144;51.524;5.080;2023-03-17T00:08:08;7.19;77.56
66343;DHT22;53144;51.524;5.080;2023-03-17T00:10:34;7.25;77.79
66343;DHT22;53144;51.524;5.080;2023-03-17T00:13:00;7.21;77.43
66343;DHT22;53144;51.524;5.080;2023-03-17T00:15:26;7.18;77.34
66343;DHT22;53144;51.524;5.080;2023-03-17T00:17:52;7.15;77.42
66343;DHT22;53144;51.524;5.080;2023-03-17T00:20:24;7.15;77.86
66343;DHT22;53144;51.524;5.080;2023-03-17T00:22:51;7.09;77.99
66343;DHT22;53144;51.524;5.080;2023-03-17T00:25:25;7.16;77.64
66343;DHT22;53144;51.524;5.080;2023-03-17T00:27:51;7.12;77.78
66343;DHT22;53144;51.524;5.080;2023-03-17T00:30:18;7.16;77.41
66343;DHT22;53144;51.524;5.080;2023-03-17T00:32:43;7.09;77.79
66343;DHT22;53144;51.524;5.080;2023-03-17T00:35:36;7.09;77.21
66343;DHT22;53144;51.524;5.080;2023-03-17T00:38:02;7.04;77.55
66343;DHT22;53144;51.524;5.080;2023-03-17T00:40:29;7.02;77.62
66343;DHT22;53144;51.524;5.080;2023-03-17T00:42:56;7.04;78.23
66343;DHT22;53144;51.524;5.080;2023-03-17T00:45:23;7.04;77.87
66343;DHT22;53144;51.524;5.080;2023-03-17T00:47:50;7.04;77.98
66343;DHT22;53144;51.524;5.080;2023-03-17T00:50:22;6.98;78.10
66343;DHT22;53144;51.524;5.080;2023-03-17T00:52:49;6.98;77.95
66343;DHT22;53144;51.524;5.080;2023-03-17T00:55:16;6.95;78.28
66343;DHT22;53144;51.524;5.080;2023-03-17T00:57:41;6.90;78.18
66343;DHT22;53144;51.524;5.080;2023-03-17T01:02:47;6.84;78.46
66343;DHT22;53144;51.524;5.080;2023-03-17T01:05:13;6.79;78.54
66343;DHT22;53144;51.524;5.080;2023-03-17T01:07:39;6.70;78.68
66343;DHT22;53144;51.524;5.080;2023-03-17T01:10:14;6.63;79.21
66343;DHT22;53144;51.524;5.080;2023-03-17T01:12:40;6.64;79.12
66343;DHT22;53144;51.524;5.080;2023-03-17T01:15:07;6.56;79.01
66343;DHT22;53144;51.524;5.080;2023-03-17T01:17:32;6.56;79.26
66343;DHT22;53144;51.524;5.080;2023-03-17T01:19:58;6.49;79.45
66343;DHT22;53144;51.524;5.080;2023-03-17T01:22:23;6.49;79.23
66343;DHT22;53144;51.524;5.080;2023-03-17T01:24:49;6.47;79.34
66343;DHT22;53144;51.524;5.080;2023-03-17T01:27:17;6.44;79.84
66343;DHT22;53144;51.524;5.080;2023-03-17T01:29:43;6.43;79.48
66343;DHT22;53144;51.524;5.080;2023-03-17T01:32:09;6.43;79.69
66343;DHT22;53144;51.524;5.080;2023-03-17T01:34:34;6.42;79.61
66343;DHT22;53144;51.524;5.080;2023-03-17T01:37:00;6.36;79.74
66343;DHT22;53144;51.524;5.080;2023-03-17T01:39:25;6.28;80.27
66343;DHT22;53144;51.524;5.080;2023-03-17T01:41:51;6.19;80.10
66343;DHT22;53144;51.524;5.080;2023-03-17T01:44:21;6.18;79.91
66343;DHT22;53144;51.524;5.080;2023-03-17T01:46:46;6.16;80.38
66343;DHT22;53144;51.524;5.080;2023-03-17T01:52:05;6.16;80.54
66343;DHT22;53144;51.524;5.080;2023-03-17T01:59:46;6.11;80.21
66343;DHT22;53144;51.524;5.080;2023-03-17T02:02:16;6.11;80.23
66343;DHT22;53144;51.524;5.080;2023-03-17T02:04:43;6.06;80.38
66343;DHT22;53144;51.524;5.080;2023-03-17T02:07:08;6.08;80.50
66343;DHT22;53144;51.524;5.080;2023-03-17T02:09:34;6.11;80.67
66343;DHT22;53144;51.524;5.080;2023-03-17T02:12:00;6.11;80.77
66343;DHT22;53144;51.524;5.080;2023-03-17T02:14:26;6.18;80.51
66343;DHT22;53144;51.524;5.080;2023-03-17T02:16:52;6.28;80.18
66343;DHT22;53144;51.524;5.080;2023-03-17T02:19:18;6.30;80.05
66343;DHT22;53144;51.524;5.080;2023-03-17T02:21:46;6.30;80.07
66343;DHT22;53144;51.524;5.080;2023-03-17T02:24:21;6.28;80.23
66343;DHT22;53144;51.524;5.080;2023-03-17T02:26:50;6.26;80.25
66343;DHT22;53144;51.524;5.080;2023-03-17T02:29:20;6.25;80.60
66343;DHT22;53144;51.524;5.080;2023-03-17T02:31:45;6.25;80.23
66343;DHT22;53144;51.524;5.080;2023-03-17T02:34:11;6.23;80.43
66343;DHT22;53144;51.524;5.080;2023-03-17T02:36:36;6.22;80.62
66343;DHT22;53144;51.524;5.080;2023-03-17T02:39:02;6.28;80.47
66343;DHT22;53144;51.524;5.080;2023-03-17T02:41:28;6.34;80.68
66343;DHT22;53144;51.524;5.080;2023-03-17T02:43:54;6.32;80.45
66343;DHT22;53144;51.524;5.080;2023-03-17T02:46:19;6.32;80.33
66343;DHT22;53144;51.524;5.080;2023-03-17T02:48:45;6.32;80.33
66343;DHT22;53144;51.524;5.080;2023-03-17T02:51:11;6.37;80.41
66343;DHT22;53144;51.524;5.080;2023-03-17T02:53:37;6.36;80.49
66343;DHT22;53144;51.524;5.080;2023-03-17T02:56:03;6.39;80.21
66343;DHT22;53144;51.524;5.080;2023-03-17T02:58:28;6.53;79.05
66343;DHT22;53144;51.524;5.080;2023-03-17T03:00:54;6.54;79.46
66343;DHT22;53144;51.524;5.080;2023-03-17T03:03:20;6.63;79.69
66343;DHT22;53144;51.524;5.080;2023-03-17T03:05:46;6.60;79.34
66343;DHT22;53144;51.524;5.080;2023-03-17T03:08:11;6.62;79.37
66343;DHT22;53144;51.524;5.080;2023-03-17T03:10:37;6.69;78.68
66343;DHT22;53144;51.524;5.080;2023-03-17T03:13:03;6.77;78.08
66343;DHT22;53144;51.524;5.080;2023-03-17T03:15:28;6.84;78.41
66343;DHT22;53144;51.524;5.080;2023-03-17T03:17:53;6.95;77.00
66343;DHT22;53144;51.524;5.080;2023-03-17T03:20:19;7.04;76.73
66343;DHT22;53144;51.524;5.080;2023-03-17T03:22:45;7.09;76.63
66343;DHT22;53144;51.524;5.080;2023-03-17T03:25:10;7.15;76.30
66343;DHT22;53144;51.524;5.080;2023-03-17T03:27:36;7.12;76.58
66343;DHT22;53144;51.524;5.080;2023-03-17T03:30:02;7.23;76.42
66343;DHT22;53144;51.524;5.080;2023-03-17T03:32:28;7.26;76.29
66343;DHT22;53144;51.524;5.080;2023-03-17T03:34:53;7.32;75.66
66343;DHT22;53144;51.524;5.080;2023-03-17T03:37:18;7.31;75.39
66343;DHT22;53144;51.524;5.080;2023-03-17T03:39:44;7.39;75.68
66343;DHT22;53144;51.524;5.080;2023-03-17T03:42:10;7.50;74.84
66343;DHT22;53144;51.524;5.080;2023-03-17T03:44:35;7.53;75.17
66343;DHT22;53144;51.524;5.080;2023-03-17T03:47:01;7.65;74.04
66343;DHT22;53144;51.524;5.080;2023-03-17T03:49:26;7.71;74.00
66343;DHT22;53144;51.524;5.080;2023-03-17T03:51:52;7.73;74.20
66343;DHT22;53144;51.524;5.080;2023-03-17T03:54:17;7.79;73.65
66343;DHT22;53144;51.524;5.080;2023-03-17T03:56:43;7.83;74.37
66343;DHT22;53144;51.524;5.080;2023-03-17T03:59:08;7.86;73.75
66343;DHT22;53144;51.524;5.080;2023-03-17T04:01:34;7.84;74.28
66343;DHT22;53144;51.524;5.080;2023-03-17T04:04:00;7.84;73.56
66343;DHT22;53144;51.524;5.080;2023-03-17T04:06:26;7.77;74.14
66343;DHT22;53144;51.524;5.080;2023-03-17T04:08:51;7.83;74.25
66343;DHT22;53144;51.524;5.080;2023-03-17T04:11:16;7.84;73.80
66343;DHT22;53144;51.524;5.080;2023-03-17T04:13:42;7.86;73.75
66343;DHT22;53144;51.524;5.080;2023-03-17T04:16:07;7.91;73.56
66343;DHT22;53144;51.524;5.080;2023-03-17T04:18:33;7.95;73.20
66343;DHT22;53144;51.524;5.080;2023-03-17T04:20:59;7.94;73.73
66343;DHT22;53144;51.524;5.080;2023-03-17T04:23:25;7.91;73.48
66343;DHT22;53144;51.524;5.080;2023-03-17T04:25:51;7.98;72.83
66343;DHT22;53144;51.524;5.080;2023-03-17T04:28:17;8.07;73.08
66343;DHT22;53144;51.524;5.080;2023-03-17T04:30:43;8.08;72.83
66343;DHT22;53144;51.524;5.080;2023-03-17T04:33:08;8.17;71.77
66343;DHT22;53144;51.524;5.080;2023-03-17T04:35:34;8.28;71.54
66343;DHT22;53144;51.524;5.080;2023-03-17T04:37:59;8.32;71.98
66343;DHT22;53144;51.524;5.080;2023-03-17T04:40:25;8.38;71.52
66343;DHT22;53144;51.524;5.080;2023-03-17T04:42:50;8.44;71.54
66343;DHT22;53144;51.524;5.080;2023-03-17T04:45:16;8.49;71.38
66343;DHT22;53144;51.524;5.080;2023-03-17T04:47:42;8.30;73.04
66343;DHT22;53144;51.524;5.080;2023-03-17T04:50:08;8.35;72.27
66343;DHT22;53144;51.524;5.080;2023-03-17T04:52:35;8.39;72.17
66343;DHT22;53144;51.524;5.080;2023-03-17T04:55:01;8.39;72.48
66343;DHT22;53144;51.524;5.080;2023-03-17T04:57:26;8.37;73.13
66343;DHT22;53144;51.524;5.080;2023-03-17T04:59:52;8.39;72.61
66343;DHT22;53144;51.524;5.080;2023-03-17T05:02:17;8.41;72.18
66343;DHT22;53144;51.524;5.080;2023-03-17T05:04:43;8.48;71.95
66343;DHT22;53144;51.524;5.080;2023-03-17T05:07:09;8.53;71.77
66343;DHT22;53144;51.524;5.080;2023-03-17T05:09:35;8.53;71.35
66343;DHT22;53144;51.524;5.080;2023-03-17T05:12:01;8.52;72.21
66343;DHT22;53144;51.524;5.080;2023-03-17T05:14:26;8.51;71.54
66343;DHT22;53144;51.524;5.080;2023-03-17T05:16:51;8.49;71.75
66343;DHT22;53144;51.524;5.080;2023-03-17T05:19:17;8.39;72.33
66343;DHT22;53144;51.524;5.080;2023-03-17T05:21:43;8.28;73.77
66343;DHT22;53144;51.524;5.080;2023-03-17T05:24:08;8.14;74.78
66343;DHT22;53144;51.524;5.080;2023-03-17T05:26:34;8.01;75.16
66343;DHT22;53144;51.524;5.080;2023-03-17T05:28:59;7.90;75.74
66343;DHT22;53144;51.524;5.080;2023-03-17T05:31:25;7.80;76.24
66343;DHT22;53144;51.524;5.080;2023-03-17T05:33:51;7.71;76.56
66343;DHT22;53144;51.524;5.080;2023-03-17T05:36:16;7.66;77.13
66343;DHT22;53144;51.524;5.080;2023-03-17T05:38:42;7.67;76.69
66343;DHT22;53144;51.524;5.080;2023-03-17T05:41:08;7.65;76.88
66343;DHT22;53144;51.524;5.080;2023-03-17T05:43:35;7.66;75.92
66343;DHT22;53144;51.524;5.080;2023-03-17T05:46:00;7.73;75.01
66343;DHT22;53144;51.524;5.080;2023-03-17T05:48:25;7.76;75.89
66343;DHT22;53144;51.524;5.080;2023-03-17T05:50:51;7.70;75.58
66343;DHT22;53144;51.524;5.080;2023-03-17T05:53:17;7.60;76.85
66343;DHT22;53144;51.524;5.080;2023-03-17T05:55:42;7.59;76.35
66343;DHT22;53144;51.524;5.080;2023-03-17T05:58:08;7.52;76.33
66343;DHT22;53144;51.524;5.080;2023-03-17T06:00:34;7.42;77.45
66343;DHT22;53144;51.524;5.080;2023-03-17T06:03:00;7.41;77.14
66343;DHT22;53144;51.524;5.080;2023-03-17T06:05:26;7.35;76.71
66343;DHT22;53144;51.524;5.080;2023-03-17T06:07:52;7.31;77.42
66343;DHT22;53144;51.524;5.080;2023-03-17T06:10:17;7.29;77.33
66343;DHT22;53144;51.524;5.080;2023-03-17T06:12:43;7.26;77.22
66343;DHT22;53144;51.524;5.080;2023-03-17T06:15:08;7.25;76.99
66343;DHT22;53144;51.524;5.080;2023-03-17T06:17:34;7.22;77.78
66343;DHT22;53144;51.524;5.080;2023-03-17T06:20:00;7.21;77.03
66343;DHT22;53144;51.524;5.080;2023-03-17T06:22:25;7.26;77.03
66343;DHT22;53144;51.524;5.080;2023-03-17T06:24:51;7.32;77.14
66343;DHT22;53144;51.524;5.080;2023-03-17T06:27:17;7.29;77.50
66343;DHT22;53144;51.524;5.080;2023-03-17T06:29:43;7.32;77.74
66343;DHT22;53144;51.524;5.080;2023-03-17T06:32:08;7.32;77.42
66343;DHT22;53144;51.524;5.080;2023-03-17T06:34:33;7.39;77.87
66343;DHT22;53144;51.524;5.080;2023-03-17T06:36:59;7.42;77.31
66343;DHT22;53144;51.524;5.080;2023-03-17T06:39:24;7.49;77.38
66343;DHT22;53144;51.524;5.080;2023-03-17T06:41:50;7.56;77.68
66343;DHT22;53144;51.524;5.080;2023-03-17T06:44:16;7.59;77.30
66343;DHT22;53144;51.524;5.080;2023-03-17T06:46:41;7.69;76.93
66343;DHT22;53144;51.524;5.080;2023-03-17T06:49:07;7.79;76.73
66343;DHT22;53144;51.524;5.080;2023-03-17T06:51:33;7.89;76.80
66343;DHT22;53144;51.524;5.080;2023-03-17T06:54:01;7.95;76.19
66343;DHT22;53144;51.524;5.080;2023-03-17T06:56:27;8.07;75.94
66343;DHT22;53144;51.524;5.080;2023-03-17T06:58:52;8.11;76.62
66343;DHT22;53144;51.524;5.080;2023-03-17T07:01:17;8.14;76.64
66343;DHT22;53144;51.524;5.080;2023-03-17T07:03:43;8.27;76.75
66343;DHT22;53144;51.524;5.080;2023-03-17T07:06:09;8.25;76.95
66343;DHT22;53144;51.524;5.080;2023-03-17T07:08:35;8.35;76.68
66343;DHT22;53144;51.524;5.080;2023-03-17T07:11:01;8.41;77.47
66343;DHT22;53144;51.524;5.080;2023-03-17T07:13:28;8.48;77.37
66343;DHT22;53144;51.524;5.080;2023-03-17T07:15:54;8.55;76.69
66343;DHT22;53144;51.524;5.080;2023-03-17T07:18:19;8.66;74.95
66343;DHT22;53144;51.524;5.080;2023-03-17T07:20:45;8.86;74.33
66343;DHT22;53144;51.524;5.080;2023-03-17T07:23:29;9.00;74.64
66343;DHT22;53144;51.524;5.080;2023-03-17T07:25:55;9.10;73.66
66343;DHT22;53144;51.524;5.080;2023-03-17T07:28:22;9.16;75.42
66343;DHT22;53144;51.524;5.080;2023-03-17T07:30:48;9.18;75.02
66343;DHT22;53144;51.524;5.080;2023-03-17T07:33:14;9.21;75.27
66343;DHT22;53144;51.524;5.080;2023-03-17T07:35:42;9.32;73.51
66343;DHT22;53144;51.524;5.080;2023-03-17T07:38:08;9.44;73.32
66343;DHT22;53144;51.524;5.080;2023-03-17T07:40:33;9.57;72.48
66343;DHT22;53144;51.524;5.080;2023-03-17T07:42:59;9.71;71.06
66343;DHT22;53144;51.524;5.080;2023-03-17T07:45:25;9.79;71.34
66343;DHT22;53144;51.524;5.080;2023-03-17T07:47:51;9.89;70.93
66343;DHT22;53144;51.524;5.080;2023-03-17T07:50:18;9.93;72.39
66343;DHT22;53144;51.524;5.080;2023-03-17T07:52:44;9.98;71.38
66343;DHT22;53144;51.524;5.080;2023-03-17T07:55:10;9.96;71.40
66343;DHT22;53144;51.524;5.080;2023-03-17T07:57:36;9.93;73.01
66343;DHT22;53144;51.524;5.080;2023-03-17T08:00:03;9.89;72.60
66343;DHT22;53144;51.524;5.080;2023-03-17T08:02:29;9.98;72.25
66343;DHT22;53144;51.524;5.080;2023-03-17T08:04:55;10.06;71.28
66343;DHT22;53144;51.524;5.080;2023-03-17T08:07:21;10.13;70.78
66343;DHT22;53144;51.524;5.080;2023-03-17T08:09:46;10.29;69.88
66343;DHT22;53144;51.524;5.080;2023-03-17T08:12:12;10.38;69.81
66343;DHT22;53144;51.524;5.080;2023-03-17T08:14:39;10.48;69.96
66343;DHT22;53144;51.524;5.080;2023-03-17T08:17:05;10.56;70.46
66343;DHT22;53144;51.524;5.080;2023-03-17T08:19:31;10.60;69.98
66343;DHT22;53144;51.524;5.080;2023-03-17T08:21:57;10.68;69.54
66343;DHT22;53144;51.524;5.080;2023-03-17T08:24:22;10.74;69.74
66343;DHT22;53144;51.524;5.080;2023-03-17T08:26:47;10.82;69.29
66343;DHT22;53144;51.524;5.080;2023-03-17T08:29:16;10.92;67.86
66343;DHT22;53144;51.524;5.080;2023-03-17T08:31:42;11.05;69.65
66343;DHT22;53144;51.524;5.080;2023-03-17T08:34:08;11.05;70.20
66343;DHT22;53144;51.524;5.080;2023-03-17T08:36:34;11.16;70.79
66343;DHT22;53144;51.524;5.080;2023-03-17T08:38:59;11.26;68.77
66343;DHT22;53144;51.524;5.080;2023-03-17T08:41:25;11.36;67.66
66343;DHT22;53144;51.524;5.080;2023-03-17T08:43:53;11.50;67.29
66343;DHT22;53144;51.524;5.080;2023-03-17T08:46:26;11.62;66.56
66343;DHT22;53144;51.524;5.080;2023-03-17T08:48:54;11.77;67.40
66343;DHT22;53144;51.524;5.080;2023-03-17T08:51:22;11.90;67.04
66343;DHT22;53144;51.524;5.080;2023-03-17T08:53:49;11.98;65.57
66343;DHT22;53144;51.524;5.080;2023-03-17T08:56:15;12.10;66.49
66343;DHT22;53144;51.524;5.080;2023-03-17T08:58:41;12.17;67.53
66343;DHT22;53144;51.524;5.080;2023-03-17T09:01:07;12.24;66.04
66343;DHT22;53144;51.524;5.080;2023-03-17T09:03:33;12.32;65.66
66343;DHT22;53144;51.524;5.080;2023-03-17T09:06:00;12.39;65.78
66343;DHT22;53144;51.524;5.080;2023-03-17T09:08:26;12.49;66.06
66343;DHT22;53144;51.524;5.080;2023-03-17T09:10:52;12.49;64.72
66343;DHT22;53144;51.524;5.080;2023-03-17T09:13:18;12.52;63.76
66343;DHT22;53144;51.524;5.080;2023-03-17T09:15:44;12.49;63.93
66343;DHT22;53144;51.524;5.080;2023-03-17T09:18:10;12.52;64.96
66343;DHT22;53144;51.524;5.080;2023-03-17T09:20:36;12.56;65.10
66343;DHT22;53144;51.524;5.080;2023-03-17T09:23:05;12.56;65.40
66343;DHT22;53144;51.524;5.080;2023-03-17T09:25:34;12.64;64.78
66343;DHT22;53144;51.524;5.080;2023-03-17T09:27:59;12.70;64.84
66343;DHT22;53144;51.524;5.080;2023-03-17T09:30:24;12.79;64.15
66343;DHT22;53144;51.524;5.080;2023-03-17T09:32:51;12.77;63.55
66343;DHT22;53144;51.524;5.080;2023-03-17T09:35:16;12.84;64.17
66343;DHT22;53144;51.524;5.080;2023-03-17T09:37:42;12.93;64.75
66343;DHT22;53144;51.524;5.080;2023-03-17T09:40:09;13.10;64.25
66343;DHT22;53144;51.524;5.080;2023-03-17T09:42:53;13.11;63.95
66343;DHT22;53144;51.524;5.080;2023-03-17T09:45:38;13.06;63.89
66343;DHT22;53144;51.524;5.080;2023-03-17T09:50:57;13.65;62.33
66343;DHT22;53144;51.524;5.080;2023-03-17T09:53:28;13.63;62.17
66343;DHT22;53144;51.524;5.080;2023-03-17T09:56:01;13.93;61.88
66343;DHT22;53144;51.524;5.080;2023-03-17T09:58:30;14.13;61.27
66343;DHT22;53144;51.524;5.080;2023-03-17T10:00:57;14.24;59.87
66343;DHT22;53144;51.524;5.080;2023-03-17T10:03:23;14.23;60.59
66343;DHT22;53144;51.524;5.080;2023-03-17T10:05:49;14.37;60.82
66343;DHT22;53144;51.524;5.080;2023-03-17T10:08:25;14.61;60.60
66343;DHT22;53144;51.524;5.080;2023-03-17T10:11:12;14.81;60.12
66343;DHT22;53144;51.524;5.080;2023-03-17T10:14:01;14.71;60.12
66343;DHT22;53144;51.524;5.080;2023-03-17T10:19:29;14.54;61.14
66343;DHT22;53144;51.524;5.080;2023-03-17T10:22:04;14.51;60.89
66343;DHT22;53144;51.524;5.080;2023-03-17T10:24:31;14.19;61.35
66343;DHT22;53144;51.524;5.080;2023-03-17T10:27:00;14.09;61.58
66343;DHT22;53144;51.524;5.080;2023-03-17T10:29:29;14.13;61.88
66343;DHT22;53144;51.524;5.080;2023-03-17T10:31:56;14.10;62.08
66343;DHT22;53144;51.524;5.080;2023-03-17T10:34:25;14.13;61.96
66343;DHT22;53144;51.524;5.080;2023-03-17T10:37:01;13.99;61.66
66343;DHT22;53144;51.524;5.080;2023-03-17T10:39:29;13.95;62.85
66343;DHT22;53144;51.524;5.080;2023-03-17T10:41:56;13.85;63.79
66343;DHT22;53144;51.524;5.080;2023-03-17T10:46:54;14.40;61.85
66343;DHT22;53144;51.524;5.080;2023-03-17T10:49:21;14.79;62.38
66343;DHT22;53144;51.524;5.080;2023-03-17T10:51:51;15.37;61.26
66343;DHT22;53144;51.524;5.080;2023-03-17T10:54:22;15.87;62.95
66343;DHT22;53144;51.524;5.080;2023-03-17T10:57:01;16.48;61.16
66343;DHT22;53144;51.524;5.080;2023-03-17T10:59:29;16.25;59.39
66343;DHT22;53144;51.524;5.080;2023-03-17T11:02:10;16.41;57.41
66343;DHT22;53144;51.524;5.080;2023-03-17T11:04:41;16.80;56.58
66343;DHT22;53144;51.524;5.080;2023-03-17T11:07:32;17.34;55.43
66343;DHT22;53144;51.524;5.080;2023-03-17T11:10:01;17.45;55.29
66343;DHT22;53144;51.524;5.080;2023-03-17T11:12:33;17.68;55.37
66343;DHT22;53144;51.524;5.080;2023-03-17T11:15:01;17.36;55.56
66343;DHT22;53144;51.524;5.080;2023-03-17T11:17:59;17.46;55.80
66343;DHT22;53144;51.524;5.080;2023-03-17T11:25:33;17.86;53.97
66343;DHT22;53144;51.524;5.080;2023-03-17T11:28:15;18.57;51.82
66343;DHT22;53144;51.524;5.080;2023-03-17T11:31:04;18.34;52.11
66343;DHT22;53144;51.524;5.080;2023-03-17T11:33:57;18.36;52.51
66343;DHT22;53144;51.524;5.080;2023-03-17T11:36:42;18.11;51.58
66343;DHT22;53144;51.524;5.080;2023-03-17T11:39:14;18.18;52.50
66343;DHT22;53144;51.524;5.080;2023-03-17T11:41:52;17.87;54.98
66343;DHT22;53144;51.524;5.080;2023-03-17T11:47:51;18.11;53.38
66343;DHT22;53144;51.524;5.080;2023-03-17T11:58:11;17.81;53.86
66343;DHT22;53144;51.524;5.080;2023-03-17T12:00:59;18.02;55.08
66343;DHT22;53144;51.524;5.080;2023-03-17T12:03:30;18.20;53.87
66343;DHT22;53144;51.524;5.080;2023-03-17T12:06:01;18.84;51.96
66343;DHT22;53144;51.524;5.080;2023-03-17T12:08:38;18.85;53.42
66343;DHT22;53144;51.524;5.080;2023-03-17T12:11:09;18.40;53.44
66343;DHT22;53144;51.524;5.080;2023-03-17T12:13:45;18.52;53.15
66343;DHT22;53144;51.524;5.080;2023-03-17T12:18:49;19.31;51.52
66343;DHT22;53144;51.524;5.080;2023-03-17T12:27:10;19.92;49.72
66343;DHT22;53144;51.524;5.080;2023-03-17T12:35:01;19.88;50.32
66343;DHT22;53144;51.524;5.080;2023-03-17T12:37:30;20.09;49.91
66343;DHT22;53144;51.524;5.080;2023-03-17T12:40:02;20.11;50.25
66343;DHT22;53144;51.524;5.080;2023-03-17T12:45:29;20.93;48.55
66343;DHT22;53144;51.524;5.080;2023-03-17T12:53:32;19.43;50.87
66343;DHT22;53144;51.524;5.080;2023-03-17T12:56:28;19.34;51.90
66343;DHT22;53144;51.524;5.080;2023-03-17T12:59:00;19.95;50.36
66343;DHT22;53144;51.524;5.080;2023-03-17T13:01:38;19.88;50.71
66343;DHT22;53144;51.524;5.080;2023-03-17T13:04:28;19.06;51.81
66343;DHT22;53144;51.524;5.080;2023-03-17T13:07:13;19.15;51.78
66343;DHT22;53144;51.524;5.080;2023-03-17T13:15:27;19.43;50.11
66343;DHT22;53144;51.524;5.080;2023-03-17T13:20:51;19.78;51.48
66343;DHT22;53144;51.524;5.080;2023-03-17T13:26:13;20.29;49.39
66343;DHT22;53144;51.524;5.080;2023-03-17T13:28:42;20.55;49.45
66343;DHT22;53144;51.524;5.080;2023-03-17T13:31:32;20.33;49.86
66343;DHT22;53144;51.524;5.080;2023-03-17T13:34:11;20.62;51.93
66343;DHT22;53144;51.524;5.080;2023-03-17T13:36:45;20.93;50.13
66343;DHT22;53144;51.524;5.080;2023-03-17T13:44:51;21.55;47.92
66343;DHT22;53144;51.524;5.080;2023-03-17T13:49:52;21.58;46.23
66343;DHT22;53144;51.524;5.080;2023-03-17T13:52:25;22.14;47.17
66343;DHT22;53144;51.524;5.080;2023-03-17T14:00:35;22.00;47.89
66343;DHT22;53144;51.524;5.080;2023-03-17T14:05:33;21.67;48.22
66343;DHT22;53144;51.524;5.080;2023-03-17T14:08:49;22.00;48.13
66343;DHT22;53144;51.524;5.080;2023-03-17T14:10:58;22.13;46.39
66343;DHT22;53144;51.524;5.080;2023-03-17T14:13:25;21.59;48.16
66343;DHT22;53144;51.524;5.080;2023-03-17T14:16:00;20.97;51.05
66343;DHT22;53144;51.524;5.080;2023-03-17T14:18:41;20.26;53.67
66343;DHT22;53144;51.524;5.080;2023-03-17T14:21:22;19.91;55.52
66343;DHT22;53144;51.524;5.080;2023-03-17T14:24:33;19.60;54.93
66343;DHT22;53144;51.524;5.080;2023-03-17T14:27:04;19.57;55.61
66343;DHT22;53144;51.524;5.080;2023-03-17T14:29:32;19.41;54.22
66343;DHT22;53144;51.524;5.080;2023-03-17T14:34:28;19.37;54.72
66343;DHT22;53144;51.524;5.080;2023-03-17T14:36:58;19.31;55.33
66343;DHT22;53144;51.524;5.080;2023-03-17T14:39:25;19.12;58.05
66343;DHT22;53144;51.524;5.080;2023-03-17T14:42:01;19.18;58.46
66343;DHT22;53144;51.524;5.080;2023-03-17T14:44:35;19.00;58.52
66343;DHT22;53144;51.524;5.080;2023-03-17T14:47:06;18.92;56.62
66343;DHT22;53144;51.524;5.080;2023-03-17T14:49:32;18.81;58.68
66343;DHT22;53144;51.524;5.080;2023-03-17T14:51:58;18.92;59.01
66343;DHT22;53144;51.524;5.080;2023-03-17T14:54:27;19.05;56.60
66343;DHT22;53144;51.524;5.080;2023-03-17T14:57:04;19.06;58.87
66343;DHT22;53144;51.524;5.080;2023-03-17T14:59:35;19.13;56.32
66343;DHT22;53144;51.524;5.080;2023-03-17T15:02:31;19.05;55.39
66343;DHT22;53144;51.524;5.080;2023-03-17T15:05:23;18.85;55.05
66343;DHT22;53144;51.524;5.080;2023-03-17T15:07:50;18.62;55.36
66343;DHT22;53144;51.524;5.080;2023-03-17T15:10:22;18.47;56.12
66343;DHT22;53144;51.524;5.080;2023-03-17T15:12:49;18.33;57.58
66343;DHT22;53144;51.524;5.080;2023-03-17T15:15:41;18.33;59.22
66343;DHT22;53144;51.524;5.080;2023-03-17T15:18:16;18.37;61.61
66343;DHT22;53144;51.524;5.080;2023-03-17T15:20:42;18.40;60.78
66343;DHT22;53144;51.524;5.080;2023-03-17T15:23:19;18.38;59.48
66343;DHT22;53144;51.524;5.080;2023-03-17T15:25:52;18.34;62.29
66343;DHT22;53144;51.524;5.080;2023-03-17T15:28:21;18.34;62.21
66343;DHT22;53144;51.524;5.080;2023-03-17T15:30:51;18.24;61.45
66343;DHT22;53144;51.524;5.080;2023-03-17T15:35:55;18.29;61.12
66343;DHT22;53144;51.524;5.080;2023-03-17T15:38:26;18.16;62.48
66343;DHT22;53144;51.524;5.080;2023-03-17T15:40:52;18.18;63.90
66343;DHT22;53144;51.524;5.080;2023-03-17T15:43:19;18.17;62.71
66343;DHT22;53144;51.524;5.080;2023-03-17T15:45:56;18.21;60.67
66343;DHT22;53144;51.524;5.080;2023-03-17T15:48:24;18.16;61.48
66343;DHT22;53144;51.524;5.080;2023-03-17T15:50:53;18.10;61.07
66343;DHT22;53144;51.524;5.080;2023-03-17T15:53:20;17.87;62.91
66343;DHT22;53144;51.524;5.080;2023-03-17T15:55:46;17.83;63.60
66343;DHT22;53144;51.524;5.080;2023-03-17T15:58:12;17.82;63.09
66343;DHT22;53144;51.524;5.080;2023-03-17T16:00:37;17.73;63.77
66343;DHT22;53144;51.524;5.080;2023-03-17T16:03:18;17.55;63.36
66343;DHT22;53144;51.524;5.080;2023-03-17T16:05:45;17.53;62.93
66343;DHT22;53144;51.524;5.080;2023-03-17T16:08:14;17.46;63.80
66343;DHT22;53144;51.524;5.080;2023-03-17T16:10:42;17.35;64.12
66343;DHT22;53144;51.524;5.080;2023-03-17T16:13:08;17.35;60.18
66343;DHT22;53144;51.524;5.080;2023-03-17T16:15:37;17.27;60.03
66343;DHT22;53144;51.524;5.080;2023-03-17T16:18:11;17.22;58.11
66343;DHT22;53144;51.524;5.080;2023-03-17T16:20:39;17.21;57.64
66343;DHT22;53144;51.524;5.080;2023-03-17T16:23:18;17.17;57.48
66343;DHT22;53144;51.524;5.080;2023-03-17T16:25:45;17.13;55.40
66343;DHT22;53144;51.524;5.080;2023-03-17T16:28:19;17.06;55.20
66343;DHT22;53144;51.524;5.080;2023-03-17T16:30:45;17.06;55.98
66343;DHT22;53144;51.524;5.080;2023-03-17T16:33:22;16.95;56.09
66343;DHT22;53144;51.524;5.080;2023-03-17T16:35:51;16.91;56.64
66343;DHT22;53144;51.524;5.080;2023-03-17T16:38:23;16.85;56.43
66343;DHT22;53144;51.524;5.080;2023-03-17T16:40:53;16.79;57.81
66343;DHT22;53144;51.524;5.080;2023-03-17T16:43:22;16.70;57.52
66343;DHT22;53144;51.524;5.080;2023-03-17T16:45:49;16.73;57.82
66343;DHT22;53144;51.524;5.080;2023-03-17T16:48:16;16.72;57.56
66343;DHT22;53144;51.524;5.080;2023-03-17T16:50:42;16.66;59.19
66343;DHT22;53144;51.524;5.080;2023-03-17T16:53:07;16.60;58.63
66343;DHT22;53144;51.524;5.080;2023-03-17T16:55:33;16.45;59.94
66343;DHT22;53144;51.524;5.080;2023-03-17T16:58:03;16.42;59.59
66343;DHT22;53144;51.524;5.080;2023-03-17T17:00:29;16.30;60.45
66343;DHT22;53144;51.524;5.080;2023-03-17T17:02:56;16.29;60.07
66343;DHT22;53144;51.524;5.080;2023-03-17T17:05:27;16.28;60.19
66343;DHT22;53144;51.524;5.080;2023-03-17T17:07:54;16.16;60.70
66343;DHT22;53144;51.524;5.080;2023-03-17T17:10:22;16.21;59.33
66343;DHT22;53144;51.524;5.080;2023-03-17T17:12:48;16.18;59.97
66343;DHT22;53144;51.524;5.080;2023-03-17T17:15:16;16.21;60.03
66343;DHT22;53144;51.524;5.080;2023-03-17T17:17:45;16.16;59.98